sensor_id;sensor_type;location;lat;lon;timestamp;temperature;humidity
35603;DHT22;21725;50.836;4.368;2022-09-29T00:02:32;12.90;99.00
35603;DHT22;21725;50.836;4.368;2022-09-29T00:05:08;13.00;98.90
35603;DHT22;21725;50.836;4.368;2022-09-29T00:07:51;13.00;99.00
35603;DHT22;21725;50.836;4.368;2022-09-29T00:16:43;13.10;98.50
35603;DHT22;21725;50.836;4.368;2022-09-29T00:19:21;13.00;98.50
35603;DHT22;21725;50.836;4.368;2022-09-29T00:22:07;12.90;98.80
35603;DHT22;21725;50.836;4.368;2022-09-29T00:25:01;12.90;99.10
35603;DHT22;21725;50.836;4.368;2022-09-29T00:27:58;12.70;99.20
35603;DHT22;21725;50.836;4.368;2022-09-29T00:30:31;12.90;99.20
35603;DHT22;21725;50.836;4.368;2022-09-29T00:33:18;13.10;99.20
35603;DHT22;21725;50.836;4.368;2022-09-29T00:36:05;12.90;99.20
35603;DHT22;21725;50.836;4.368;2022-09-29T00:38:58;12.60;99.20
35603;DHT22;21725;50.836;4.368;2022-09-29T00:41:49;12.50;99.20
35603;DHT22;21725;50.836;4.368;2022-09-29T00:47:25;12.50;99.30
35603;DHT22;21725;50.836;4.368;2022-09-29T00:50:24;12.50;99.30
35603;DHT22;21725;50.836;4.368;2022-09-29T00:53:00;12.50;99.30
35603;DHT22;21725;50.836;4.368;2022-09-29T00:55:49;12.60;99.20
35603;DHT22;21725;50.836;4.368;2022-09-29T00:58:33;12.70;99.10
35603;DHT22;21725;50.836;4.368;2022-09-29T01:01:21;12.70;99.00
35603;DHT22;21725;50.836;4.368;2022-09-29T01:04:44;12.80;98.70
35603;DHT22;21725;50.836;4.368;2022-09-29T01:10:17;12.60;99.10
35603;DHT22;21725;50.836;4.368;2022-09-29T01:15:56;12.50;99.50
35603;DHT22;21725;50.836;4.368;2022-09-29T01:18:43;12.50;99.50
35603;DHT22;21725;50.836;4.368;2022-09-29T01:21:27;12.70;99.30
35603;DHT22;21725;50.836;4.368;2022-09-29T01:40:47;12.30;99.70
35603;DHT22;21725;50.836;4.368;2022-09-29T01:43:35;12.40;99.50
35603;DHT22;21725;50.836;4.368;2022-09-29T01:46:26;12.40;99.60
35603;DHT22;21725;50.836;4.368;2022-09-29T01:49:22;12.30;99.80
35603;DHT22;21725;50.836;4.368;2022-09-29T01:52:39;12.30;99.90
35603;DHT22;21725;50.836;4.368;2022-09-29T01:55:24;12.30;99.80
35603;DHT22;21725;50.836;4.368;2022-09-29T01:58:20;12.30;99.80
35603;DHT22;21725;50.836;4.368;2022-09-29T02:01:09;12.50;99.90
35603;DHT22;21725;50.836;4.368;2022-09-29T02:04:07;12.30;99.90
35603;DHT22;21725;50.836;4.368;2022-09-29T02:07:01;12.20;99.90
35603;DHT22;21725;50.836;4.368;2022-09-29T02:12:50;12.20;99.90
35603;DHT22;21725;50.836;4.368;2022-09-29T02:19:04;12.20;99.90
35603;DHT22;21725;50.836;4.368;2022-09-29T02:21:44;11.80;99.90
35603;DHT22;21725;50.836;4.368;2022-09-29T02:24:30;12.00;99.90
35603;DHT22;21725;50.836;4.368;2022-09-29T02:27:08;12.10;99.90
35603;DHT22;21725;50.836;4.368;2022-09-29T02:30:05;12.50;99.90
35603;DHT22;21725;50.836;4.368;2022-09-29T02:32:53;12.20;99.90
35603;DHT22;21725;50.836;4.368;2022-09-29T02:56:32;12.00;99.90
35603;DHT22;21725;50.836;4.368;2022-09-29T02:59:42;11.90;99.90
35603;DHT22;21725;50.836;4.368;2022-09-29T03:02:25;12.00;99.90
35603;DHT22;21725;50.836;4.368;2022-09-29T03:05:16;12.00;99.90
35603;DHT22;21725;50.836;4.368;2022-09-29T03:08:07;12.10;99.90
35603;DHT22;21725;50.836;4.368;2022-09-29T03:11:00;12.00;99.90
35603;DHT22;21725;50.836;4.368;2022-09-29T03:13:43;12.20;99.90
35603;DHT22;21725;50.836;4.368;2022-09-29T03:19:21;12.30;99.90
35603;DHT22;21725;50.836;4.368;2022-09-29T03:21:47;12.20;99.90
35603;DHT22;21725;50.836;4.368;2022-09-29T03:24:24;12.10;99.90
35603;DHT22;21725;50.836;4.368;2022-09-29T03:30:33;12.10;99.90
35603;DHT22;21725;50.836;4.368;2022-09-29T03:33:06;12.50;99.90
35603;DHT22;21725;50.836;4.368;2022-09-29T03:35:55;12.10;99.90
35603;DHT22;21725;50.836;4.368;2022-09-29T03:38:54;12.30;99.90
35603;DHT22;21725;50.836;4.368;2022-09-29T03:45:04;12.50;99.50
35603;DHT22;21725;50.836;4.368;2022-09-29T03:47:43;12.40;99.90
35603;DHT22;21725;50.836;4.368;2022-09-29T03:50:26;12.50;99.90
35603;DHT22;21725;50.836;4.368;2022-09-29T03:53:05;12.20;99.90
35603;DHT22;21725;50.836;4.368;2022-09-29T03:55:50;12.20;99.90
35603;DHT22;21725;50.836;4.368;2022-09-29T03:58:54;12.20;99.90
35603;DHT22;21725;50.836;4.368;2022-09-29T04:02:06;12.20;99.90
35603;DHT22;21725;50.836;4.368;2022-09-29T04:04:50;12.30;99.90
35603;DHT22;21725;50.836;4.368;2022-09-29T04:07:38;12.10;99.90
35603;DHT22;21725;50.836;4.368;2022-09-29T04:10:07;12.00;99.90
35603;DHT22;21725;50.836;4.368;2022-09-29T04:16:12;12.00;99.90
35603;DHT22;21725;50.836;4.368;2022-09-29T04:19:10;12.00;99.90
35603;DHT22;21725;50.836;4.368;2022-09-29T04:22:09;12.00;99.90
35603;DHT22;21725;50.836;4.368;2022-09-29T04:25:09;12.00;99.90
35603;DHT22;21725;50.836;4.368;2022-09-29T04:27:49;12.20;99.90
35603;DHT22;21725;50.836;4.368;2022-09-29T04:30:50;12.10;99.90
35603;DHT22;21725;50.836;4.368;2022-09-29T04:33:22;12.10;99.90
35603;DHT22;21725;50.836;4.368;2022-09-29T04:36:06;12.00;99.90
35603;DHT22;21725;50.836;4.368;2022-09-29T04:39:11;11.90;99.90
35603;DHT22;21725;50.836;4.368;2022-09-29T04:42:03;11.90;99.90
35603;DHT22;21725;50.836;4.368;2022-09-29T04:44:41;12.20;99.90
35603;DHT22;21725;50.836;4.368;2022-09-29T04:47:29;12.30;99.90
35603;DHT22;21725;50.836;4.368;2022-09-29T04:53:25;12.50;99.90
35603;DHT22;21725;50.836;4.368;2022-09-29T04:59:37;12.50;99.90
35603;DHT22;21725;50.836;4.368;2022-09-29T05:02:25;12.50;99.90
35603;DHT22;21725;50.836;4.368;2022-09-29T05:05:23;12.30;99.90
35603;DHT22;21725;50.836;4.368;2022-09-29T05:08:19;12.30;99.90
35603;DHT22;21725;50.836;4.368;2022-09-29T05:11:12;12.40;99.90
35603;DHT22;21725;50.836;4.368;2022-09-29T05:13:53;12.70;99.90
35603;DHT22;21725;50.836;4.368;2022-09-29T05:16:57;12.30;99.90
35603;DHT22;21725;50.836;4.368;2022-09-29T05:19:36;12.20;99.90
35603;DHT22;21725;50.836;4.368;2022-09-29T05:22:12;12.10;99.90
35603;DHT22;21725;50.836;4.368;2022-09-29T05:28:08;11.90;99.90
35603;DHT22;21725;50.836;4.368;2022-09-29T05:31:01;11.90;99.90
35603;DHT22;21725;50.836;4.368;2022-09-29T05:33:47;11.90;99.90
35603;DHT22;21725;50.836;4.368;2022-09-29T05:37:09;11.90;99.90
35603;DHT22;21725;50.836;4.368;2022-09-29T05:40:00;11.90;99.90
35603;DHT22;21725;50.836;4.368;2022-09-29T05:42:41;11.90;99.90
35603;DHT22;21725;50.836;4.368;2022-09-29T05:45:43;11.90;99.90
35603;DHT22;21725;50.836;4.368;2022-09-29T05:48:24;11.90;99.90
35603;DHT22;21725;50.836;4.368;2022-09-29T05:51:07;11.90;99.90
35603;DHT22;21725;50.836;4.368;2022-09-29T05:53:36;11.90;99.90
35603;DHT22;21725;50.836;4.368;2022-09-29T05:56:41;11.90;99.90
35603;DHT22;21725;50.836;4.368;2022-09-29T05:59:25;12.00;99.90
35603;DHT22;21725;50.836;4.368;2022-09-29T06:02:13;12.00;99.90
35603;DHT22;21725;50.836;4.368;2022-09-29T06:04:48;12.10;99.90
35603;DHT22;21725;50.836;4.368;2022-09-29T06:07:30;12.10;99.90
35603;DHT22;21725;50.836;4.368;2022-09-29T06:10:07;12.10;99.90
35603;DHT22;21725;50.836;4.368;2022-09-29T06:12:42;12.00;99.90
35603;DHT22;21725;50.836;4.368;2022-09-29T06:15:50;12.00;99.90
35603;DHT22;21725;50.836;4.368;2022-09-29T06:18:39;12.10;99.90
35603;DHT22;21725;50.836;4.368;2022-09-29T06:21:28;12.10;99.90
35603;DHT22;21725;50.836;4.368;2022-09-29T06:24:15;12.30;99.90
35603;DHT22;21725;50.836;4.368;2022-09-29T06:27:03;12.30;99.90
35603;DHT22;21725;50.836;4.368;2022-09-29T06:29:51;12.40;99.90
35603;DHT22;21725;50.836;4.368;2022-09-29T06:32:43;12.50;99.90
35603;DHT22;21725;50.836;4.368;2022-09-29T06:35:48;12.50;99.90
35603;DHT22;21725;50.836;4.368;2022-09-29T06:38:43;12.50;99.90
35603;DHT22;21725;50.836;4.368;2022-09-29T06:41:40;12.60;99.90
35603;DHT22;21725;50.836;4.368;2022-09-29T06:44:21;12.60;99.90
35603;DHT22;21725;50.836;4.368;2022-09-29T06:49:56;12.50;99.90
35603;DHT22;21725;50.836;4.368;2022-09-29T06:52:41;12.50;99.90
35603;DHT22;21725;50.836;4.368;2022-09-29T06:55:28;12.80;99.90
35603;DHT22;21725;50.836;4.368;2022-09-29T06:58:06;13.10;99.90
35603;DHT22;21725;50.836;4.368;2022-09-29T07:00:52;12.90;99.90
35603;DHT22;21725;50.836;4.368;2022-09-29T07:03:57;13.10;99.80
35603;DHT22;21725;50.836;4.368;2022-09-29T07:06:47;13.70;99.90
35603;DHT22;21725;50.836;4.368;2022-09-29T07:09:24;14.10;99.10
35603;DHT22;21725;50.836;4.368;2022-09-29T07:12:17;14.30;98.30
35603;DHT22;21725;50.836;4.368;2022-09-29T07:15:09;14.40;97.80
35603;DHT22;21725;50.836;4.368;2022-09-29T07:17:41;14.80;96.60
35603;DHT22;21725;50.836;4.368;2022-09-29T07:20:27;14.60;96.80
35603;DHT22;21725;50.836;4.368;2022-09-29T07:23:01;14.50;97.20
35603;DHT22;21725;50.836;4.368;2022-09-29T07:25:37;14.40;97.20
35603;DHT22;21725;50.836;4.368;2022-09-29T07:28:17;14.50;96.80
35603;DHT22;21725;50.836;4.368;2022-09-29T07:31:18;14.40;97.00
35603;DHT22;21725;50.836;4.368;2022-09-29T07:33:51;14.10;97.50
35603;DHT22;21725;50.836;4.368;2022-09-29T07:36:37;13.90;98.00
35603;DHT22;21725;50.836;4.368;2022-09-29T07:39:32;13.90;97.80
35603;DHT22;21725;50.836;4.368;2022-09-29T07:42:18;14.00;97.70
35603;DHT22;21725;50.836;4.368;2022-09-29T07:48:20;13.70;97.80
35603;DHT22;21725;50.836;4.368;2022-09-29T07:53:45;13.90;97.80
35603;DHT22;21725;50.836;4.368;2022-09-29T07:56:48;13.70;98.30
35603;DHT22;21725;50.836;4.368;2022-09-29T07:59:30;13.60;98.30
35603;DHT22;21725;50.836;4.368;2022-09-29T08:05:23;13.60;98.50
35603;DHT22;21725;50.836;4.368;2022-09-29T08:08:15;13.60;98.80
35603;DHT22;21725;50.836;4.368;2022-09-29T08:11:15;13.90;98.70
35603;DHT22;21725;50.836;4.368;2022-09-29T08:13:54;13.90;98.30
35603;DHT22;21725;50.836;4.368;2022-09-29T08:16:30;14.30;98.40
35603;DHT22;21725;50.836;4.368;2022-09-29T08:19:26;14.10;98.00
35603;DHT22;21725;50.836;4.368;2022-09-29T08:22:11;14.20;97.80
35603;DHT22;21725;50.836;4.368;2022-09-29T08:24:42;14.20;97.70
35603;DHT22;21725;50.836;4.368;2022-09-29T08:27:38;14.10;97.90
35603;DHT22;21725;50.836;4.368;2022-09-29T08:30:21;13.90;98.60
35603;DHT22;21725;50.836;4.368;2022-09-29T08:32:55;13.80;98.90
35603;DHT22;21725;50.836;4.368;2022-09-29T08:36:00;13.90;98.70
35603;DHT22;21725;50.836;4.368;2022-09-29T08:38:30;14.00;98.60
35603;DHT22;21725;50.836;4.368;2022-09-29T08:47:49;14.50;97.70
35603;DHT22;21725;50.836;4.368;2022-09-29T08:51:11;14.70;97.20
35603;DHT22;21725;50.836;4.368;2022-09-29T08:54:13;14.80;97.00
35603;DHT22;21725;50.836;4.368;2022-09-29T09:10:38;15.00;96.80
35603;DHT22;21725;50.836;4.368;2022-09-29T09:13:48;14.80;97.30
35603;DHT22;21725;50.836;4.368;2022-09-29T09:20:08;15.20;96.50
35603;DHT22;21725;50.836;4.368;2022-09-29T09:23:02;15.60;95.60
35603;DHT22;21725;50.836;4.368;2022-09-29T09:26:11;15.60;95.50
35603;DHT22;21725;50.836;4.368;2022-09-29T09:29:03;15.70;95.30
35603;DHT22;21725;50.836;4.368;2022-09-29T09:31:59;15.60;95.70
35603;DHT22;21725;50.836;4.368;2022-09-29T09:41:51;16.30;94.80
35603;DHT22;21725;50.836;4.368;2022-09-29T09:47:52;16.50;94.40
35603;DHT22;21725;50.836;4.368;2022-09-29T09:50:32;16.50;94.30
35603;DHT22;21725;50.836;4.368;2022-09-29T09:56:40;16.40;94.30
35603;DHT22;21725;50.836;4.368;2022-09-29T10:02:23;16.40;94.10
35603;DHT22;21725;50.836;4.368;2022-09-29T10:05:00;16.60;93.60
35603;DHT22;21725;50.836;4.368;2022-09-29T10:07:49;17.00;93.50
35603;DHT22;21725;50.836;4.368;2022-09-29T10:10:22;17.20;92.90
35603;DHT22;21725;50.836;4.368;2022-09-29T10:13:30;17.10;93.10
35603;DHT22;21725;50.836;4.368;2022-09-29T10:16:44;17.10;93.10
35603;DHT22;21725;50.836;4.368;2022-09-29T10:19:51;17.20;92.70
35603;DHT22;21725;50.836;4.368;2022-09-29T10:22:39;17.20;92.70
35603;DHT22;21725;50.836;4.368;2022-09-29T10:27:55;17.70;91.90
35603;DHT22;21725;50.836;4.368;2022-09-29T10:30:50;17.60;92.00
35603;DHT22;21725;50.836;4.368;2022-09-29T10:33:29;17.70;91.70
35603;DHT22;21725;50.836;4.368;2022-09-29T10:36:25;17.70;91.60
35603;DHT22;21725;50.836;4.368;2022-09-29T10:39:43;17.80;91.40
35603;DHT22;21725;50.836;4.368;2022-09-29T10:45:47;17.80;90.70
35603;DHT22;21725;50.836;4.368;2022-09-29T10:48:24;17.60;91.00
35603;DHT22;21725;50.836;4.368;2022-09-29T10:51:20;17.90;91.10
35603;DHT22;21725;50.836;4.368;2022-09-29T10:54:14;18.10;91.10
35603;DHT22;21725;50.836;4.368;2022-09-29T10:56:54;18.10;90.80
35603;DHT22;21725;50.836;4.368;2022-09-29T10:59:21;17.60;91.60
35603;DHT22;21725;50.836;4.368;2022-09-29T11:02:29;17.70;91.60
35603;DHT22;21725;50.836;4.368;2022-09-29T11:05:57;17.80;91.20
35603;DHT22;21725;50.836;4.368;2022-09-29T11:18:49;18.20;90.00
35603;DHT22;21725;50.836;4.368;2022-09-29T11:21:53;17.90;90.30
35603;DHT22;21725;50.836;4.368;2022-09-29T11:52:16;18.60;86.40
35603;DHT22;21725;50.836;4.368;2022-09-29T12:14:12;18.70;85.80
35603;DHT22;21725;50.836;4.368;2022-09-29T12:17:13;18.70;85.80
35603;DHT22;21725;50.836;4.368;2022-09-29T12:20:04;18.60;86.60
35603;DHT22;21725;50.836;4.368;2022-09-29T12:22:36;18.40;88.20
35603;DHT22;21725;50.836;4.368;2022-09-29T12:25:19;18.70;88.70
35603;DHT22;21725;50.836;4.368;2022-09-29T12:28:21;18.70;88.70
35603;DHT22;21725;50.836;4.368;2022-09-29T12:34:09;18.60;89.40
35603;DHT22;21725;50.836;4.368;2022-09-29T12:46:36;18.70;90.00
35603;DHT22;21725;50.836;4.368;2022-09-29T12:49:54;18.90;89.60
35603;DHT22;21725;50.836;4.368;2022-09-29T12:53:11;19.00;89.20
35603;DHT22;21725;50.836;4.368;2022-09-29T12:55:56;18.80;89.40
35603;DHT22;21725;50.836;4.368;2022-09-29T12:58:56;18.70;89.80
35603;DHT22;21725;50.836;4.368;2022-09-29T13:01:35;18.90;89.60
35603;DHT22;21725;50.836;4.368;2022-09-29T13:04:30;19.10;89.20
35603;DHT22;21725;50.836;4.368;2022-09-29T13:28:39;18.70;86.70
35603;DHT22;21725;50.836;4.368;2022-09-29T13:31:11;18.60;85.90
35603;DHT22;21725;50.836;4.368;2022-09-29T13:34:01;18.60;86.10
35603;DHT22;21725;50.836;4.368;2022-09-29T13:36:39;18.70;86.50
35603;DHT22;21725;50.836;4.368;2022-09-29T13:39:26;19.00;86.70
35603;DHT22;21725;50.836;4.368;2022-09-29T13:50:57;19.30;86.00
35603;DHT22;21725;50.836;4.368;2022-09-29T13:53:39;19.20;86.20
35603;DHT22;21725;50.836;4.368;2022-09-29T13:56:24;19.30;86.10
35603;DHT22;21725;50.836;4.368;2022-09-29T13:59:20;19.50;85.90
35603;DHT22;21725;50.836;4.368;2022-09-29T14:02:01;19.40;85.90
35603;DHT22;21725;50.836;4.368;2022-09-29T14:04:51;19.30;86.00
35603;DHT22;21725;50.836;4.368;2022-09-29T14:14:29;19.30;86.50
35603;DHT22;21725;50.836;4.368;2022-09-29T14:17:41;19.40;85.50
35603;DHT22;21725;50.836;4.368;2022-09-29T14:20:34;19.30;86.20
35603;DHT22;21725;50.836;4.368;2022-09-29T14:23:10;19.10;86.40
35603;DHT22;21725;50.836;4.368;2022-09-29T14:28:46;18.60;87.80
35603;DHT22;21725;50.836;4.368;2022-09-29T14:31:31;18.50;87.90
35603;DHT22;21725;50.836;4.368;2022-09-29T14:34:12;18.50;88.30
35603;DHT22;21725;50.836;4.368;2022-09-29T14:39:50;18.80;87.50
35603;DHT22;21725;50.836;4.368;2022-09-29T14:49:29;18.90;88.40
35603;DHT22;21725;50.836;4.368;2022-09-29T14:52:43;18.70;89.20
35603;DHT22;21725;50.836;4.368;2022-09-29T14:55:59;18.80;89.10
35603;DHT22;21725;50.836;4.368;2022-09-29T15:05:00;19.00;88.70
35603;DHT22;21725;50.836;4.368;2022-09-29T15:07:57;19.10;88.30
35603;DHT22;21725;50.836;4.368;2022-09-29T15:13:55;18.90;89.10
35603;DHT22;21725;50.836;4.368;2022-09-29T15:28:02;18.50;90.00
35603;DHT22;21725;50.836;4.368;2022-09-29T15:31:15;18.50;90.70
35603;DHT22;21725;50.836;4.368;2022-09-29T15:33:53;18.30;91.20
35603;DHT22;21725;50.836;4.368;2022-09-29T15:36:39;18.10;91.60
35603;DHT22;21725;50.836;4.368;2022-09-29T15:42:30;18.20;91.80
35603;DHT22;21725;50.836;4.368;2022-09-29T15:45:16;18.20;91.50
35603;DHT22;21725;50.836;4.368;2022-09-29T15:48:03;18.20;91.40
35603;DHT22;21725;50.836;4.368;2022-09-29T15:50:57;18.10;91.60
35603;DHT22;21725;50.836;4.368;2022-09-29T15:53:28;17.90;92.00
35603;DHT22;21725;50.836;4.368;2022-09-29T15:56:35;17.70;92.20
35603;DHT22;21725;50.836;4.368;2022-09-29T16:05:30;17.50;93.20
35603;DHT22;21725;50.836;4.368;2022-09-29T16:08:20;17.50;93.30
35603;DHT22;21725;50.836;4.368;2022-09-29T16:11:17;17.30;93.70
35603;DHT22;21725;50.836;4.368;2022-09-29T16:14:19;17.50;93.50
35603;DHT22;21725;50.836;4.368;2022-09-29T16:17:03;17.70;93.20
35603;DHT22;21725;50.836;4.368;2022-09-29T16:20:00;17.50;93.50
35603;DHT22;21725;50.836;4.368;2022-09-29T16:22:40;17.30;93.80
35603;DHT22;21725;50.836;4.368;2022-09-29T16:25:42;17.10;94.40
35603;DHT22;21725;50.836;4.368;2022-09-29T16:28:36;17.10;94.30
35603;DHT22;21725;50.836;4.368;2022-09-29T16:31:22;17.10;94.50
35603;DHT22;21725;50.836;4.368;2022-09-29T16:33:59;17.00;94.70
35603;DHT22;21725;50.836;4.368;2022-09-29T16:36:40;16.90;94.80
35603;DHT22;21725;50.836;4.368;2022-09-29T16:40:16;16.90;94.60
35603;DHT22;21725;50.836;4.368;2022-09-29T16:42:57;16.90;94.60
35603;DHT22;21725;50.836;4.368;2022-09-29T16:48:51;17.10;94.60
35603;DHT22;21725;50.836;4.368;2022-09-29T16:51:56;17.30;94.20
35603;DHT22;21725;50.836;4.368;2022-09-29T16:54:44;17.40;94.10
35603;DHT22;21725;50.836;4.368;2022-09-29T16:57:25;17.20;94.10
35603;DHT22;21725;50.836;4.368;2022-09-29T17:03:19;17.10;94.40
35603;DHT22;21725;50.836;4.368;2022-09-29T17:05:56;17.20;94.30
35603;DHT22;21725;50.836;4.368;2022-09-29T17:08:51;17.10;94.70
35603;DHT22;21725;50.836;4.368;2022-09-29T17:11:26;17.20;94.30
35603;DHT22;21725;50.836;4.368;2022-09-29T17:14:12;17.10;94.50
35603;DHT22;21725;50.836;4.368;2022-09-29T17:16:40;17.20;94.40
35603;DHT22;21725;50.836;4.368;2022-09-29T17:22:44;16.90;95.30
35603;DHT22;21725;50.836;4.368;2022-09-29T17:25:48;17.00;94.50
35603;DHT22;21725;50.836;4.368;2022-09-29T17:28:27;17.10;94.80
35603;DHT22;21725;50.836;4.368;2022-09-29T17:31:03;17.10;94.70
35603;DHT22;21725;50.836;4.368;2022-09-29T17:33:40;17.10;94.50
35603;DHT22;21725;50.836;4.368;2022-09-29T17:36:23;17.20;94.60
35603;DHT22;21725;50.836;4.368;2022-09-29T17:39:17;17.20;93.90
35603;DHT22;21725;50.836;4.368;2022-09-29T17:42:05;17.00;94.10
35603;DHT22;21725;50.836;4.368;2022-09-29T17:44:54;16.90;94.10
35603;DHT22;21725;50.836;4.368;2022-09-29T17:47:32;16.90;94.10
35603;DHT22;21725;50.836;4.368;2022-09-29T17:56:25;16.70;94.80
35603;DHT22;21725;50.836;4.368;2022-09-29T17:59:20;16.50;95.40
35603;DHT22;21725;50.836;4.368;2022-09-29T18:05:14;16.30;96.00
35603;DHT22;21725;50.836;4.368;2022-09-29T18:07:55;16.40;95.30
35603;DHT22;21725;50.836;4.368;2022-09-29T18:17:16;16.20;95.10
35603;DHT22;21725;50.836;4.368;2022-09-29T18:20:07;16.10;95.50
35603;DHT22;21725;50.836;4.368;2022-09-29T18:22:48;16.30;95.70
35603;DHT22;21725;50.836;4.368;2022-09-29T18:25:27;16.30;95.30
35603;DHT22;21725;50.836;4.368;2022-09-29T18:28:08;16.40;94.80
35603;DHT22;21725;50.836;4.368;2022-09-29T18:30:48;16.50;94.50
35603;DHT22;21725;50.836;4.368;2022-09-29T18:33:58;16.70;93.50
35603;DHT22;21725;50.836;4.368;2022-09-29T18:36:33;16.80;93.50
35603;DHT22;21725;50.836;4.368;2022-09-29T18:42:22;16.70;93.20
35603;DHT22;21725;50.836;4.368;2022-09-29T18:45:19;16.60;93.20
35603;DHT22;21725;50.836;4.368;2022-09-29T18:48:23;16.50;93.70
35603;DHT22;21725;50.836;4.368;2022-09-29T18:51:21;16.50;93.60
35603;DHT22;21725;50.836;4.368;2022-09-29T18:54:13;16.40;93.80
35603;DHT22;21725;50.836;4.368;2022-09-29T18:57:10;16.40;93.80
35603;DHT22;21725;50.836;4.368;2022-09-29T18:59:39;16.60;93.90
35603;DHT22;21725;50.836;4.368;2022-09-29T19:02:32;16.70;93.70
35603;DHT22;21725;50.836;4.368;2022-09-29T19:05:40;16.70;93.90
35603;DHT22;21725;50.836;4.368;2022-09-29T19:08:29;16.60;94.10
35603;DHT22;21725;50.836;4.368;2022-09-29T19:11:22;16.70;94.20
35603;DHT22;21725;50.836;4.368;2022-09-29T19:14:10;16.80;93.90
35603;DHT22;21725;50.836;4.368;2022-09-29T19:16:41;16.70;94.10
35603;DHT22;21725;50.836;4.368;2022-09-29T19:19:19;16.60;94.40
35603;DHT22;21725;50.836;4.368;2022-09-29T19:22:14;16.40;94.60
35603;DHT22;21725;50.836;4.368;2022-09-29T19:24:52;16.30;94.90
35603;DHT22;21725;50.836;4.368;2022-09-29T19:27:28;16.20;95.00
35603;DHT22;21725;50.836;4.368;2022-09-29T19:33:15;16.30;95.10
35603;DHT22;21725;50.836;4.368;2022-09-29T19:35:52;16.10;95.40
35603;DHT22;21725;50.836;4.368;2022-09-29T19:41:40;15.90;95.90
35603;DHT22;21725;50.836;4.368;2022-09-29T19:44:35;15.80;96.20
35603;DHT22;21725;50.836;4.368;2022-09-29T19:47:43;15.90;96.30
35603;DHT22;21725;50.836;4.368;2022-09-29T19:50:19;15.80;96.30
35603;DHT22;21725;50.836;4.368;2022-09-29T19:53:11;15.70;96.50
35603;DHT22;21725;50.836;4.368;2022-09-29T19:56:03;15.90;96.40
35603;DHT22;21725;50.836;4.368;2022-09-29T19:58:54;16.00;96.10
35603;DHT22;21725;50.836;4.368;2022-09-29T20:01:38;16.10;96.20
35603;DHT22;21725;50.836;4.368;2022-09-29T20:07:44;15.70;97.10
35603;DHT22;21725;50.836;4.368;2022-09-29T20:10:44;15.70;97.30
35603;DHT22;21725;50.836;4.368;2022-09-29T20:13:30;15.50;97.70
35603;DHT22;21725;50.836;4.368;2022-09-29T20:16:26;15.40;97.80
35603;DHT22;21725;50.836;4.368;2022-09-29T20:19:22;15.40;97.90
35603;DHT22;21725;50.836;4.368;2022-09-29T20:22:08;15.40;98.10
35603;DHT22;21725;50.836;4.368;2022-09-29T20:24:48;15.30;98.30
35603;DHT22;21725;50.836;4.368;2022-09-29T20:27:52;15.30;98.50
35603;DHT22;21725;50.836;4.368;2022-09-29T20:30:36;15.70;98.40
35603;DHT22;21725;50.836;4.368;2022-09-29T20:33:32;15.50;98.30
35603;DHT22;21725;50.836;4.368;2022-09-29T20:36:20;15.30;98.40
35603;DHT22;21725;50.836;4.368;2022-09-29T20:41:52;15.40;98.50
35603;DHT22;21725;50.836;4.368;2022-09-29T20:44:58;15.20;99.00
35603;DHT22;21725;50.836;4.368;2022-09-29T20:51:00;15.00;99.40
35603;DHT22;21725;50.836;4.368;2022-09-29T20:53:36;15.10;99.50
35603;DHT22;21725;50.836;4.368;2022-09-29T20:56:40;14.90;99.60
35603;DHT22;21725;50.836;4.368;2022-09-29T20:59:23;14.90;99.60
35603;DHT22;21725;50.836;4.368;2022-09-29T21:01:50;15.00;99.60
35603;DHT22;21725;50.836;4.368;2022-09-29T21:04:31;15.00;99.50
35603;DHT22;21725;50.836;4.368;2022-09-29T21:10:29;15.20;99.40
35603;DHT22;21725;50.836;4.368;2022-09-29T21:13:07;15.20;99.40
35603;DHT22;21725;50.836;4.368;2022-09-29T21:15:48;15.20;99.40
35603;DHT22;21725;50.836;4.368;2022-09-29T21:18:51;15.20;99.50
35603;DHT22;21725;50.836;4.368;2022-09-29T21:21:17;15.20;99.70
35603;DHT22;21725;50.836;4.368;2022-09-29T21:24:14;15.20;99.50
35603;DHT22;21725;50.836;4.368;2022-09-29T21:27:02;15.10;99.70
35603;DHT22;21725;50.836;4.368;2022-09-29T21:29:38;15.00;99.80
35603;DHT22;21725;50.836;4.368;2022-09-29T21:35:25;14.80;99.90
35603;DHT22;21725;50.836;4.368;2022-09-29T21:38:32;14.60;99.90
35603;DHT22;21725;50.836;4.368;2022-09-29T21:41:41;14.70;99.90
35603;DHT22;21725;50.836;4.368;2022-09-29T21:44:22;14.70;99.90
35603;DHT22;21725;50.836;4.368;2022-09-29T21:50:18;14.70;99.90
35603;DHT22;21725;50.836;4.368;2022-09-29T21:53:25;14.80;99.90
35603;DHT22;21725;50.836;4.368;2022-09-29T21:56:21;14.80;99.90
35603;DHT22;21725;50.836;4.368;2022-09-29T21:59:00;14.80;99.90
35603;DHT22;21725;50.836;4.368;2022-09-29T22:04:53;14.70;99.90
35603;DHT22;21725;50.836;4.368;2022-09-29T22:07:31;14.70;99.90
35603;DHT22;21725;50.836;4.368;2022-09-29T22:10:10;14.70;99.90
35603;DHT22;21725;50.836;4.368;2022-09-29T22:12:46;14.70;99.90
35603;DHT22;21725;50.836;4.368;2022-09-29T22:15:39;14.70;99.90
35603;DHT22;21725;50.836;4.368;2022-09-29T22:18:28;14.70;99.90
35603;DHT22;21725;50.836;4.368;2022-09-29T22:21:18;14.60;99.90
35603;DHT22;21725;50.836;4.368;2022-09-29T22:23:59;14.70;99.90
35603;DHT22;21725;50.836;4.368;2022-09-29T22:26:42;14.80;99.90
35603;DHT22;21725;50.836;4.368;2022-09-29T22:29:25;14.80;99.90
35603;DHT22;21725;50.836;4.368;2022-09-29T22:32:41;14.80;99.90
35603;DHT22;21725;50.836;4.368;2022-09-29T22:35:39;14.60;99.90
35603;DHT22;21725;50.836;4.368;2022-09-29T22:38:26;14.50;99.90
35603;DHT22;21725;50.836;4.368;2022-09-29T22:41:26;14.40;99.90
35603;DHT22;21725;50.836;4.368;2022-09-29T22:46:59;14.30;99.90
35603;DHT22;21725;50.836;4.368;2022-09-29T22:50:03;14.30;99.90
35603;DHT22;21725;50.836;4.368;2022-09-29T22:52:50;14.30;99.90
35603;DHT22;21725;50.836;4.368;2022-09-29T22:55:32;14.30;99.90
35603;DHT22;21725;50.836;4.368;2022-09-29T22:58:11;14.40;99.90
35603;DHT22;21725;50.836;4.368;2022-09-29T23:01:22;14.30;99.90
35603;DHT22;21725;50.836;4.368;2022-09-29T23:04:16;14.30;99.90
35603;DHT22;21725;50.836;4.368;2022-09-29T23:07:39;14.30;99.90
35603;DHT22;21725;50.836;4.368;2022-09-29T23:10:43;14.20;99.90
35603;DHT22;21725;50.836;4.368;2022-09-29T23:13:36;14.30;99.90
35603;DHT22;21725;50.836;4.368;2022-09-29T23:16:20;14.20;99.90
35603;DHT22;21725;50.836;4.368;2022-09-29T23:19:13;14.10;99.90
35603;DHT22;21725;50.836;4.368;2022-09-29T23:22:08;14.80;99.90
35603;DHT22;21725;50.836;4.368;2022-09-29T23:24:36;14.20;99.90
35603;DHT22;21725;50.836;4.368;2022-09-29T23:27:17;14.20;99.90
35603;DHT22;21725;50.836;4.368;2022-09-29T23:30:14;14.20;99.90
35603;DHT22;21725;50.836;4.368;2022-09-29T23:32:57;14.40;99.90
35603;DHT22;21725;50.836;4.368;2022-09-29T23:35:43;14.10;99.90